createdAt,value
2018-02-21T00:00:41.984Z,15.63
2018-02-21T00:03:12.062Z,17.83
2018-02-21T00:05:46.451Z,16.20
2018-02-21T00:08:27.661Z,17.97
2018-02-21T00:10:55.761Z,16.60
2018-02-21T00:13:23.850Z,18.50
2018-02-21T00:16:04.163Z,18.30
2018-02-21T00:18:46.325Z,16.87
2018-02-21T00:21:16.418Z,16.57
2018-02-21T00:23:44.522Z,16.17
2018-02-21T00:26:23.613Z,15.40
2018-02-21T00:29:01.424Z,15.87
2018-02-21T00:31:31.295Z,17.20
2018-02-21T00:33:59.430Z,17.00
2018-02-21T00:36:53.658Z,15.43
2018-02-21T00:39:21.843Z,16.50
2018-02-21T00:41:50.948Z,14.20
2018-02-21T00:44:19.154Z,17.03
2018-02-21T00:47:01.907Z,14.40
2018-02-21T00:52:26.516Z,16.97
2018-02-21T00:54:54.579Z,18.10
2018-02-21T00:57:23.630Z,17.77
2018-02-21T00:59:52.727Z,16.67
2018-02-21T01:02:24.400Z,17.03
2018-02-21T01:04:52.575Z,17.23
2018-02-21T01:07:22.735Z,18.00
2018-02-21T01:10:04.987Z,18.17
2018-02-21T01:12:35.053Z,15.03
2018-02-21T01:15:03.202Z,17.17
2018-02-21T01:17:35.095Z,17.50
2018-02-21T01:20:07.872Z,16.87
2018-02-21T01:22:36.438Z,17.20
2018-02-21T01:25:18.111Z,18.23
2018-02-21T01:28:02.276Z,18.00
2018-02-21T01:30:36.461Z,15.80
2018-02-21T01:33:05.400Z,17.30
2018-02-21T01:35:33.562Z,16.13
2018-02-21T01:38:02.699Z,18.97
2018-02-21T01:40:45.349Z,17.67
2018-02-21T01:43:13.460Z,17.30
2018-02-21T01:45:41.647Z,17.93
2018-02-21T01:48:17.807Z,17.17
2018-02-21T01:50:52.563Z,17.97
2018-02-21T01:53:23.350Z,16.47
2018-02-21T01:55:52.271Z,18.00
2018-02-21T01:58:26.882Z,17.10
2018-02-21T02:00:59.532Z,17.20
2018-02-21T02:03:30.413Z,16.53
2018-02-21T02:06:05.021Z,16.60
2018-02-21T02:08:55.146Z,18.20
2018-02-21T02:11:36.463Z,17.03
2018-02-21T02:14:04.594Z,18.87
2018-02-21T02:16:37.628Z,17.80
2018-02-21T02:19:07.644Z,16.77
2018-02-21T02:21:35.747Z,16.93
2018-02-21T02:24:05.712Z,16.47
2018-02-21T02:26:34.591Z,18.53
2018-02-21T02:29:05.907Z,19.30
2018-02-21T02:31:34.280Z,18.57
2018-02-21T02:34:13.824Z,18.97
2018-02-21T02:36:41.984Z,17.90
2018-02-21T02:39:35.824Z,18.73
2018-02-21T02:42:23.343Z,19.90
2018-02-21T02:44:51.458Z,19.83
2018-02-21T02:47:40.424Z,17.80
2018-02-21T02:53:04.276Z,19.70
2018-02-21T02:55:34.320Z,18.43
2018-02-21T02:58:16.434Z,19.67
2018-02-21T03:00:44.588Z,19.17
2018-02-21T03:03:18.451Z,18.07
2018-02-21T03:05:46.553Z,18.63
2018-02-21T03:08:27.746Z,20.40
2018-02-21T03:10:57.875Z,19.70
2018-02-21T03:13:31.031Z,21.10
2018-02-21T03:16:01.056Z,21.00
2018-02-21T03:18:33.750Z,22.53
2018-02-21T03:21:01.908Z,20.70
2018-02-21T03:23:30.044Z,20.10
2018-02-21T03:25:58.133Z,21.93
2018-02-21T03:28:38.454Z,20.10
2018-02-21T03:31:17.718Z,21.40
2018-02-21T03:33:45.881Z,20.37
2018-02-21T03:36:27.784Z,21.87
2018-02-21T03:39:09.179Z,20.93
2018-02-21T03:41:38.215Z,20.97
2018-02-21T03:44:07.199Z,19.93
2018-02-21T03:46:40.846Z,19.50
2018-02-21T03:49:12.122Z,20.87
2018-02-21T03:51:41.207Z,21.23
2018-02-21T03:57:17.086Z,17.17
2018-02-21T04:00:06.347Z,19.57
2018-02-21T04:02:34.909Z,17.60
2018-02-21T04:08:03.335Z,20.70
2018-02-21T04:10:32.071Z,19.50
2018-02-21T04:13:05.709Z,19.37
2018-02-21T04:15:33.807Z,20.37
2018-02-21T04:18:01.906Z,19.90
2018-02-21T04:20:30.137Z,19.90
2018-02-21T04:23:04.234Z,20.90
2018-02-21T04:25:33.377Z,21.73
2018-02-21T04:28:07.028Z,19.53
2018-02-21T04:30:35.144Z,20.20
2018-02-21T04:33:04.241Z,20.60
2018-02-21T04:35:32.638Z,18.63
2018-02-21T04:38:02.774Z,17.53
2018-02-21T04:40:36.646Z,21.20
2018-02-21T04:43:11.476Z,19.00
2018-02-21T04:45:43.985Z,18.37
2018-02-21T04:48:13.009Z,20.70
2018-02-21T04:50:45.214Z,18.60
2018-02-21T04:53:16.349Z,18.20
2018-02-21T04:55:48.974Z,18.67
2018-02-21T04:58:22.861Z,19.20
2018-02-21T05:01:11.836Z,19.60
2018-02-21T05:03:44.111Z,19.27
2018-02-21T05:06:12.206Z,21.90
2018-02-21T05:08:40.688Z,19.80
2018-02-21T05:11:08.903Z,19.70
2018-02-21T05:13:37.434Z,21.30
2018-02-21T05:16:06.825Z,20.23
2018-02-21T05:18:36.624Z,18.70
2018-02-21T05:21:04.715Z,18.20
2018-02-21T05:23:32.853Z,20.97
2018-02-21T05:26:00.967Z,21.20
2018-02-21T05:28:29.876Z,21.00
2018-02-21T05:30:59.963Z,18.63
2018-02-21T05:33:28.185Z,19.83
2018-02-21T05:35:57.191Z,19.73
2018-02-21T05:38:25.342Z,19.87
2018-02-21T05:40:55.542Z,20.17
2018-02-21T05:43:23.656Z,19.73
2018-02-21T05:45:51.790Z,18.43
2018-02-21T05:48:23.146Z,21.23
2018-02-21T05:50:55.016Z,20.17
2018-02-21T05:53:23.159Z,19.93
2018-02-21T05:55:57.088Z,20.43
2018-02-21T05:58:25.252Z,19.30
2018-02-21T06:00:55.083Z,19.90
2018-02-21T06:03:23.947Z,20.40
2018-02-21T06:05:52.296Z,17.80
2018-02-21T06:08:20.482Z,20.80
2018-02-21T06:10:49.803Z,20.20
2018-02-21T06:13:17.927Z,21.23
2018-02-21T06:15:46.085Z,19.53
2018-02-21T06:18:14.195Z,19.90
2018-02-21T06:20:42.309Z,19.37
2018-02-21T06:23:11.549Z,19.13
2018-02-21T06:25:39.703Z,20.47
2018-02-21T06:28:09.729Z,19.40
2018-02-21T06:30:37.816Z,19.53
2018-02-21T06:33:06.742Z,21.13
2018-02-21T06:35:34.913Z,20.70
2018-02-21T06:38:03.808Z,18.77
2018-02-21T06:40:33.303Z,21.30
2018-02-21T06:43:01.597Z,20.20
2018-02-21T06:45:29.691Z,20.20
2018-02-21T06:47:58.585Z,18.50
2018-02-21T06:50:27.907Z,20.70
2018-02-21T06:52:56.826Z,19.73
2018-02-21T06:55:25.811Z,19.33
2018-02-21T06:57:54.755Z,21.63
2018-02-21T07:00:22.832Z,20.53
2018-02-21T07:02:50.977Z,20.03
2018-02-21T07:05:22.373Z,19.47
2018-02-21T07:10:58.519Z,20.20
2018-02-21T07:13:27.644Z,21.20
2018-02-21T07:15:57.065Z,18.80
2018-02-21T07:18:25.668Z,20.70
2018-02-21T07:20:53.766Z,19.23
2018-02-21T07:23:22.678Z,21.10
2018-02-21T07:25:52.470Z,20.67
2018-02-21T07:28:22.706Z,19.43
2018-02-21T07:31:01.124Z,19.77
2018-02-21T07:33:29.333Z,20.80
2018-02-21T07:35:58.315Z,20.80
2018-02-21T07:38:28.776Z,20.83
2018-02-21T07:40:57.737Z,20.57
2018-02-21T07:43:26.065Z,22.13
2018-02-21T07:45:54.274Z,20.70
2018-02-21T07:48:22.392Z,22.13
2018-02-21T07:50:51.426Z,19.53
2018-02-21T07:53:24.131Z,18.60
2018-02-21T07:55:53.021Z,21.80
2018-02-21T07:58:22.071Z,21.07
2018-02-21T08:00:50.475Z,19.40
2018-02-21T08:03:18.810Z,19.67
2018-02-21T08:05:47.088Z,19.87
2018-02-21T08:08:15.241Z,18.90
2018-02-21T08:10:43.485Z,18.00
2018-02-21T08:13:12.007Z,19.77
2018-02-21T08:15:43.684Z,18.80
2018-02-21T08:18:16.526Z,19.77
2018-02-21T08:20:48.791Z,18.17
2018-02-21T08:23:18.862Z,19.43
2018-02-21T08:25:47.904Z,19.67
2018-02-21T08:28:16.133Z,21.40
2018-02-21T08:30:45.553Z,19.73
2018-02-21T08:33:15.181Z,19.47
2018-02-21T08:35:43.332Z,18.30
2018-02-21T08:38:11.521Z,19.67
2018-02-21T08:40:40.696Z,20.07
2018-02-21T08:43:21.367Z,18.57
2018-02-21T08:45:50.719Z,19.40
2018-02-21T08:48:18.855Z,21.53
2018-02-21T08:50:50.504Z,19.97
2018-02-21T08:53:18.642Z,18.80
2018-02-21T08:55:47.648Z,17.43
2018-02-21T08:58:15.781Z,21.43
2018-02-21T09:00:48.081Z,19.33
2018-02-21T09:03:17.348Z,19.73
2018-02-21T09:05:45.488Z,19.60
2018-02-21T09:08:14.653Z,19.63
2018-02-21T09:10:43.774Z,19.27
2018-02-21T09:13:12.081Z,19.30
2018-02-21T09:15:43.151Z,20.70
2018-02-21T09:18:11.245Z,19.00
2018-02-21T09:20:40.321Z,19.00
2018-02-21T09:23:09.276Z,18.23
2018-02-21T09:25:38.395Z,19.60
2018-02-21T09:28:06.787Z,18.43
2018-02-21T09:30:34.965Z,20.80
2018-02-21T09:33:03.053Z,19.17
2018-02-21T09:35:31.203Z,20.97
2018-02-21T09:37:59.429Z,20.10
2018-02-21T09:40:27.580Z,22.73
2018-02-21T09:42:55.845Z,18.70
2018-02-21T09:45:23.997Z,18.70
2018-02-21T09:47:52.136Z,14.10
2018-02-21T09:50:20.362Z,15.93
2018-02-21T09:52:48.471Z,14.80
2018-02-21T09:55:17.475Z,12.77
2018-02-21T09:57:47.260Z,14.47
2018-02-21T10:00:16.776Z,14.37
2018-02-21T10:02:45.787Z,14.27
2018-02-21T10:05:13.960Z,13.77
2018-02-21T10:07:43.053Z,13.83
2018-02-21T10:10:11.138Z,13.70
2018-02-21T10:12:39.269Z,11.83
2018-02-21T10:15:07.469Z,13.43
2018-02-21T10:17:35.687Z,10.77
2018-02-21T10:20:03.928Z,9.40
2018-02-21T10:22:33.571Z,10.50
2018-02-21T10:25:01.666Z,10.27
2018-02-21T10:27:29.882Z,9.60
2018-02-21T10:29:57.995Z,9.93
2018-02-21T10:32:27.063Z,10.00
2018-02-21T10:34:55.151Z,10.07
2018-02-21T10:37:23.955Z,11.10
2018-02-21T10:39:53.012Z,9.87
2018-02-21T10:42:21.160Z,9.03
2018-02-21T10:44:50.070Z,9.60
2018-02-21T10:47:18.161Z,11.00
2018-02-21T10:49:46.267Z,11.23
2018-02-21T10:52:14.373Z,8.70
2018-02-21T10:54:45.506Z,11.63
2018-02-21T10:57:15.141Z,10.87
2018-02-21T10:59:44.156Z,9.67
2018-02-21T11:02:13.863Z,10.77
2018-02-21T11:04:42.364Z,9.60
2018-02-21T11:07:14.520Z,8.57
2018-02-21T11:09:42.762Z,10.10
2018-02-21T11:12:16.482Z,10.53
2018-02-21T11:14:44.607Z,11.83
2018-02-21T11:17:12.723Z,11.43
2018-02-21T11:19:40.868Z,10.33
2018-02-21T11:22:09.187Z,10.80
2018-02-21T11:24:38.211Z,13.10
2018-02-21T11:27:07.303Z,10.70
2018-02-21T11:29:35.444Z,12.33
2018-02-21T11:32:05.834Z,11.80
2018-02-21T11:34:34.815Z,12.43
2018-02-21T11:37:02.924Z,11.27
2018-02-21T11:39:32.106Z,12.80
2018-02-21T11:42:00.242Z,13.57
2018-02-21T11:44:33.409Z,13.40
2018-02-21T11:47:01.673Z,12.93
2018-02-21T11:49:30.001Z,13.53
2018-02-21T11:51:58.180Z,13.73
2018-02-21T11:54:27.068Z,12.63
2018-02-21T11:56:55.218Z,13.50
2018-02-21T11:59:24.271Z,13.40
2018-02-21T12:01:53.658Z,13.00
2018-02-21T12:04:22.394Z,12.93
2018-02-21T12:06:50.675Z,11.50
2018-02-21T12:09:18.898Z,11.70
2018-02-21T12:11:49.924Z,12.60
2018-02-21T12:14:18.836Z,12.80
2018-02-21T12:16:52.994Z,12.90
2018-02-21T12:19:21.133Z,12.87
2018-02-21T12:21:50.381Z,12.93
2018-02-21T12:24:21.440Z,13.20
2018-02-21T12:26:49.577Z,13.40
2018-02-21T12:29:17.704Z,13.40
2018-02-21T12:32:00.716Z,12.90
2018-02-21T12:34:30.560Z,13.43
2018-02-21T12:36:59.472Z,15.87
2018-02-21T12:39:35.378Z,12.70
2018-02-21T12:42:03.516Z,12.67
2018-02-21T12:44:31.959Z,13.30
2018-02-21T12:47:00.996Z,14.13
2018-02-21T12:49:36.062Z,13.17
2018-02-21T12:52:06.319Z,13.70
2018-02-21T12:54:34.798Z,10.33
2018-02-21T12:57:03.032Z,13.23
2018-02-21T12:59:31.250Z,13.00
2018-02-21T13:01:59.376Z,13.70
2018-02-21T13:04:27.625Z,12.60
2018-02-21T13:06:55.820Z,13.73
2018-02-21T13:09:23.982Z,12.60
2018-02-21T13:11:52.170Z,12.23
2018-02-21T13:14:21.133Z,13.17
2018-02-21T13:16:49.844Z,13.60
2018-02-21T13:19:18.152Z,12.23
2018-02-21T13:21:47.112Z,11.60
2018-02-21T13:24:16.128Z,13.17
2018-02-21T13:26:44.237Z,11.50
2018-02-21T13:29:12.354Z,14.10
2018-02-21T13:31:40.709Z,13.90
2018-02-21T13:34:10.666Z,13.30
2018-02-21T13:36:40.905Z,13.60
2018-02-21T13:39:09.105Z,12.93
2018-02-21T13:41:38.342Z,12.17
2018-02-21T13:44:06.480Z,10.30
2018-02-21T13:46:34.624Z,12.57
2018-02-21T13:49:02.816Z,13.17
2018-02-21T13:51:31.016Z,12.23
2018-02-21T13:54:03.045Z,11.57
2018-02-21T13:56:31.408Z,13.03
2018-02-21T13:58:59.532Z,13.40
2018-02-21T14:01:28.597Z,12.67
2018-02-21T14:03:56.832Z,12.97
2018-02-21T14:06:24.923Z,11.07
2018-02-21T14:08:54.350Z,12.40
2018-02-21T14:11:24.913Z,13.57
2018-02-21T14:14:02.895Z,12.70
2018-02-21T14:16:32.851Z,11.77
2018-02-21T14:19:01.928Z,10.03
2018-02-21T14:21:30.983Z,11.10
2018-02-21T14:23:59.219Z,10.70
2018-02-21T14:26:27.589Z,9.70
2018-02-21T14:28:55.819Z,8.93
2018-02-21T14:31:25.823Z,10.10
2018-02-21T14:33:54.117Z,9.80
2018-02-21T14:36:26.016Z,11.33
2018-02-21T14:38:54.179Z,11.00
2018-02-21T14:41:26.726Z,11.60
2018-02-21T14:44:00.226Z,10.70
2018-02-21T14:46:28.466Z,12.00
2018-02-21T14:48:57.452Z,11.33
2018-02-21T14:51:25.624Z,11.53
2018-02-21T14:53:55.051Z,11.87
2018-02-21T14:56:23.315Z,11.67
2018-02-21T14:58:51.489Z,12.50
2018-02-21T15:01:19.821Z,11.13
2018-02-21T15:03:48.101Z,12.50
2018-02-21T15:06:17.173Z,12.10
2018-02-21T15:08:45.321Z,11.73
2018-02-21T15:11:13.457Z,11.50
2018-02-21T15:13:42.546Z,10.90
2018-02-21T15:16:16.286Z,10.50
2018-02-21T15:18:45.324Z,10.10
2018-02-21T15:21:13.463Z,11.40
2018-02-21T15:23:41.586Z,10.97
2018-02-21T15:26:10.347Z,11.50
2018-02-21T15:28:39.387Z,10.60
2018-02-21T15:31:08.411Z,11.17
2018-02-21T15:33:36.608Z,10.80
2018-02-21T15:36:04.805Z,11.00
2018-02-21T15:38:33.759Z,12.13
2018-02-21T15:41:02.652Z,10.30
2018-02-21T15:43:30.877Z,10.70
2018-02-21T15:45:58.984Z,10.83
2018-02-21T15:48:30.006Z,11.27
2018-02-21T15:51:05.329Z,11.17
2018-02-21T15:53:40.200Z,10.60
2018-02-21T15:56:08.450Z,12.33
2018-02-21T15:58:37.690Z,10.60
2018-02-21T16:01:05.811Z,12.27
2018-02-21T16:03:34.017Z,11.70
2018-02-21T16:06:02.152Z,12.10
2018-02-21T16:08:30.655Z,11.70
2018-02-21T16:10:59.762Z,12.27
2018-02-21T16:13:27.921Z,13.27
2018-02-21T16:15:57.114Z,11.30
2018-02-21T16:18:28.242Z,12.67
2018-02-21T16:20:59.097Z,12.10
2018-02-21T16:23:27.171Z,12.17
2018-02-21T16:25:55.337Z,12.70
2018-02-21T16:28:23.437Z,13.40
2018-02-21T16:30:54.232Z,13.47
2018-02-21T16:33:35.976Z,11.53
2018-02-21T16:36:04.292Z,12.33
2018-02-21T16:38:35.922Z,13.77
2018-02-21T16:41:10.240Z,13.60
2018-02-21T16:43:38.352Z,13.03
2018-02-21T16:46:09.340Z,12.37
2018-02-21T16:48:37.529Z,12.17
2018-02-21T16:54:11.030Z,16.10
2018-02-21T16:56:39.159Z,12.00
2018-02-21T16:59:08.181Z,13.20
2018-02-21T17:01:37.190Z,13.60
2018-02-21T17:04:05.370Z,14.10
2018-02-21T17:06:36.268Z,13.37
2018-02-21T17:12:16.203Z,13.00
2018-02-21T17:14:45.230Z,11.53
2018-02-21T17:17:17.387Z,13.40
2018-02-21T17:19:50.214Z,12.27
2018-02-21T17:22:20.433Z,13.03
2018-02-21T17:24:53.164Z,14.27
2018-02-21T17:27:23.372Z,12.53
2018-02-21T17:30:03.533Z,12.50
2018-02-21T17:32:42.404Z,13.10
2018-02-21T17:35:10.533Z,13.73
2018-02-21T17:37:44.468Z,12.10
2018-02-21T17:40:13.731Z,12.90
2018-02-21T17:42:43.616Z,13.53
2018-02-21T17:45:14.670Z,12.53
2018-02-21T17:47:42.779Z,12.10
2018-02-21T17:50:10.942Z,13.30
2018-02-21T17:52:45.329Z,13.40
2018-02-21T17:55:16.227Z,14.03
2018-02-21T17:57:48.029Z,13.27
2018-02-21T18:00:25.659Z,16.73
2018-02-21T18:02:55.335Z,14.27
2018-02-21T18:05:36.377Z,13.97
2018-02-21T18:08:04.998Z,14.20
2018-02-21T18:10:38.737Z,14.03
2018-02-21T18:13:13.793Z,16.77
2018-02-21T18:15:45.805Z,13.53
2018-02-21T18:18:19.180Z,13.73
2018-02-21T18:20:47.779Z,14.13
2018-02-21T18:23:16.204Z,14.60
2018-02-21T18:25:44.587Z,15.63
2018-02-21T18:28:12.933Z,14.57
2018-02-21T18:30:45.417Z,13.37
2018-02-21T18:33:14.933Z,14.70
2018-02-21T18:35:43.744Z,16.13
2018-02-21T18:38:14.119Z,15.80
2018-02-21T18:40:45.464Z,14.40
2018-02-21T18:43:16.605Z,15.63
2018-02-21T18:45:47.687Z,14.30
2018-02-21T18:48:18.267Z,17.80
2018-02-21T18:50:49.665Z,16.73
2018-02-21T18:53:20.130Z,15.20
2018-02-21T18:55:48.646Z,15.17
2018-02-21T18:58:17.723Z,15.40
2018-02-21T19:00:45.904Z,15.50
2018-02-21T19:03:17.502Z,15.53
2018-02-21T19:08:49.848Z,16.13
2018-02-21T19:11:17.927Z,17.30
2018-02-21T19:13:46.084Z,17.40
2018-02-21T19:16:23.761Z,16.07
2018-02-21T19:19:00.287Z,15.43
2018-02-21T19:21:44.101Z,16.03
2018-02-21T19:24:15.476Z,15.90
2018-02-21T19:26:55.198Z,17.10
2018-02-21T19:29:23.279Z,17.23
2018-02-21T19:31:51.413Z,16.77
2018-02-21T19:34:32.158Z,17.23
2018-02-21T19:37:01.175Z,15.20
2018-02-21T19:39:30.079Z,16.37
2018-02-21T19:42:01.465Z,16.73
2018-02-21T19:44:36.118Z,14.00
2018-02-21T19:47:05.782Z,17.40
2018-02-21T19:49:36.555Z,17.13
2018-02-21T19:52:07.793Z,17.17
2018-02-21T19:54:36.758Z,18.03
2018-02-21T19:57:16.975Z,20.07
2018-02-21T19:59:45.839Z,18.67
2018-02-21T20:02:14.894Z,18.10
2018-02-21T20:04:47.322Z,17.90
2018-02-21T20:07:15.422Z,18.37
2018-02-21T20:09:44.575Z,18.43
2018-02-21T20:12:12.703Z,18.37
2018-02-21T20:14:41.814Z,18.60
2018-02-21T20:17:09.963Z,17.03
2018-02-21T20:19:42.030Z,16.93
2018-02-21T20:22:10.140Z,18.40
2018-02-21T20:24:38.255Z,18.93
2018-02-21T20:27:07.335Z,20.90
2018-02-21T20:29:36.328Z,17.83
2018-02-21T20:32:04.469Z,19.10
2018-02-21T20:34:37.176Z,17.50
2018-02-21T20:37:06.978Z,17.03
2018-02-21T20:39:40.773Z,20.73
2018-02-21T20:42:08.871Z,16.67
2018-02-21T20:44:37.002Z,18.30
2018-02-21T20:47:05.145Z,17.23
2018-02-21T20:49:34.242Z,17.30
2018-02-21T20:52:02.478Z,18.97
2018-02-21T20:54:57.347Z,18.60
2018-02-21T20:57:32.135Z,17.50
2018-02-21T21:00:07.789Z,19.00
2018-02-21T21:02:35.898Z,18.50
2018-02-21T21:05:04.047Z,18.87
2018-02-21T21:07:32.189Z,19.50
2018-02-21T21:10:00.316Z,18.73
2018-02-21T21:15:22.771Z,17.77
2018-02-21T21:17:50.954Z,18.87
2018-02-21T21:20:23.050Z,18.90
2018-02-21T21:25:57.206Z,18.47
2018-02-21T21:28:25.482Z,17.87
2018-02-21T21:30:53.577Z,19.30
2018-02-21T21:33:27.148Z,19.80
2018-02-21T21:36:00.168Z,19.13
2018-02-21T21:38:32.029Z,19.10
2018-02-21T21:41:00.165Z,17.93
2018-02-21T21:43:29.026Z,18.37
2018-02-21T21:46:05.153Z,17.57
2018-02-21T21:48:35.490Z,19.63
2018-02-21T21:51:05.638Z,17.67
2018-02-21T21:53:35.699Z,20.30
2018-02-21T21:56:11.837Z,19.17
2018-02-21T21:58:43.766Z,19.17
2018-02-21T22:01:17.534Z,19.50
2018-02-21T22:03:45.651Z,19.47
2018-02-21T22:06:16.671Z,19.53
2018-02-21T22:12:01.634Z,19.10
2018-02-21T22:14:33.105Z,17.03
2018-02-21T22:17:04.313Z,21.20
2018-02-21T22:19:34.338Z,21.33
2018-02-21T22:22:04.714Z,19.57
2018-02-21T22:24:35.721Z,21.23
2018-02-21T22:27:10.310Z,20.67
2018-02-21T22:29:44.748Z,22.40
2018-02-21T22:32:17.270Z,20.20
2018-02-21T22:37:32.864Z,21.30
2018-02-21T22:40:08.073Z,21.10
2018-02-21T22:42:40.634Z,22.30
2018-02-21T22:45:13.359Z,20.60
2018-02-21T22:50:35.572Z,21.47
2018-02-21T22:53:03.664Z,20.90
2018-02-21T22:55:34.012Z,21.57
2018-02-21T22:58:02.893Z,20.43
2018-02-21T23:03:50.008Z,22.80
2018-02-21T23:06:19.106Z,21.70
2018-02-21T23:08:57.203Z,21.47
2018-02-21T23:11:33.885Z,20.27
2018-02-21T23:14:02.547Z,22.83
2018-02-21T23:16:34.787Z,23.60
2018-02-21T23:19:03.831Z,21.77
2018-02-21T23:21:37.686Z,20.53
2018-02-21T23:24:06.600Z,19.87
2018-02-21T23:26:35.693Z,20.00
2018-02-21T23:29:07.015Z,20.03
2018-02-21T23:31:51.602Z,20.43
2018-02-21T23:34:19.699Z,21.40
2018-02-21T23:36:47.800Z,23.47
2018-02-21T23:39:16.678Z,21.93
2018-02-21T23:41:50.943Z,20.70
2018-02-21T23:44:19.054Z,19.60
2018-02-21T23:46:52.141Z,18.77
2018-02-21T23:49:20.250Z,19.90
2018-02-21T23:51:49.341Z,17.67
2018-02-21T23:54:17.459Z,19.33
2018-02-21T23:56:45.567Z,19.20
2018-02-21T23:59:13.673Z,19.00
